createdAt,value
2022-09-11T00:00:10.939Z,101327.00
2022-09-11T00:02:42.032Z,101329.00
2022-09-11T00:05:11.205Z,101314.00
2022-09-11T00:07:38.817Z,101318.00
2022-09-11T00:10:13.399Z,101331.00
2022-09-11T00:12:50.222Z,101329.00
2022-09-11T00:15:30.358Z,101336.00
2022-09-11T00:18:22.549Z,101344.00
2022-09-11T00:21:00.442Z,101331.00
2022-09-11T00:23:35.307Z,101329.00
2022-09-11T00:26:11.783Z,101306.00
2022-09-11T00:28:50.769Z,101325.00
2022-09-11T00:31:28.173Z,101317.00
2022-09-11T00:34:03.437Z,101317.00
2022-09-11T00:36:47.856Z,101324.00
2022-09-11T00:39:41.032Z,101336.00
2022-09-11T00:47:06.510Z,101365.00
2022-09-11T00:49:46.444Z,101357.00
2022-09-11T00:52:43.027Z,101360.00
2022-09-11T00:55:38.643Z,101369.00
2022-09-11T01:02:36.001Z,101369.00
2022-09-11T01:05:16.747Z,101366.00
2022-09-11T01:12:44.101Z,101382.00
2022-09-11T01:15:46.834Z,101381.00
2022-09-11T01:19:22.500Z,101376.00
2022-09-11T01:22:22.045Z,101383.00
2022-09-11T01:25:28.319Z,101371.00
2022-09-11T01:28:18.450Z,101372.00
2022-09-11T01:30:58.014Z,101388.00
2022-09-11T01:34:09.692Z,101388.00
2022-09-11T01:36:57.564Z,101387.00
2022-09-11T01:39:45.462Z,101396.00
2022-09-11T01:46:35.617Z,101387.00
2022-09-11T01:49:27.317Z,101393.00
2022-09-11T01:52:08.215Z,101398.00
2022-09-11T01:55:08.151Z,101398.00
2022-09-11T01:58:25.310Z,101399.00
2022-09-11T02:01:46.999Z,101410.00
2022-09-11T02:05:22.239Z,101392.00
2022-09-11T02:08:28.052Z,101398.00
2022-09-11T02:11:11.103Z,101390.00
2022-09-11T02:14:26.299Z,101401.00
2022-09-11T02:17:44.828Z,101412.00
2022-09-11T02:23:25.581Z,101412.00
2022-09-11T02:25:58.656Z,101426.00
2022-09-11T02:28:29.611Z,101415.00
2022-09-11T02:31:04.409Z,101416.00
2022-09-11T02:33:43.802Z,101420.00
2022-09-11T02:40:27.254Z,101426.00
2022-09-11T02:43:48.487Z,101414.00
2022-09-11T02:47:40.717Z,101417.00
2022-09-11T02:54:46.078Z,101427.00
2022-09-11T02:57:32.299Z,101427.00
2022-09-11T03:00:04.844Z,101437.00
2022-09-11T03:02:45.560Z,101430.00
2022-09-11T03:05:13.689Z,101444.00
2022-09-11T03:07:41.119Z,101441.00
2022-09-11T03:10:11.949Z,101450.00
2022-09-11T03:12:40.417Z,101452.00
2022-09-11T03:15:10.739Z,101439.00
2022-09-11T03:17:38.505Z,101448.00
2022-09-11T03:20:09.282Z,101438.00
2022-09-11T03:22:36.639Z,101445.00
2022-09-11T03:25:04.710Z,101441.00
2022-09-11T03:27:32.500Z,101445.00
2022-09-11T03:30:02.450Z,101434.00
2022-09-11T03:32:31.444Z,101443.00
2022-09-11T03:35:01.928Z,101443.00
2022-09-11T03:37:34.812Z,101443.00
2022-09-11T03:40:06.513Z,101445.00
2022-09-11T03:43:12.512Z,101435.00
2022-09-11T03:46:00.753Z,101439.00
2022-09-11T03:48:29.572Z,101431.00
2022-09-11T03:51:05.402Z,101440.00
2022-09-11T03:53:39.464Z,101439.00
2022-09-11T03:56:23.056Z,101442.00
2022-09-11T03:59:05.155Z,101440.00
2022-09-11T04:01:42.820Z,101450.00
2022-09-11T04:04:21.169Z,101445.00
2022-09-11T04:06:49.026Z,101456.00
2022-09-11T04:09:17.349Z,101440.00
2022-09-11T04:11:44.668Z,101446.00
2022-09-11T04:14:14.900Z,101454.00
2022-09-11T04:16:45.624Z,101447.00
2022-09-11T04:19:13.651Z,101451.00
2022-09-11T04:21:42.476Z,101448.00
2022-09-11T04:24:15.178Z,101449.00
2022-09-11T04:26:42.879Z,101450.00
2022-09-11T04:29:10.103Z,101456.00
2022-09-11T04:31:44.668Z,101442.00
2022-09-11T04:34:15.405Z,101449.00
2022-09-11T04:36:51.513Z,101447.00
2022-09-11T04:39:24.929Z,101461.00
2022-09-11T04:41:57.856Z,101460.00
2022-09-11T04:44:29.573Z,101451.00
2022-09-11T04:47:04.375Z,101463.00
2022-09-11T04:49:37.588Z,101458.00
2022-09-11T04:52:13.911Z,101461.00
2022-09-11T04:54:44.987Z,101467.00
2022-09-11T04:57:23.412Z,101462.00
2022-09-11T04:59:52.114Z,101474.00
2022-09-11T05:02:26.262Z,101467.00
2022-09-11T05:05:05.370Z,101479.00
2022-09-11T05:07:45.632Z,101471.00
2022-09-11T05:10:20.555Z,101490.00
2022-09-11T05:13:04.107Z,101484.00
2022-09-11T05:15:49.868Z,101486.00
2022-09-11T05:26:53.739Z,101495.00
2022-09-11T05:29:24.797Z,101500.00
2022-09-11T05:31:54.616Z,101498.00
2022-09-11T05:34:24.096Z,101491.00
2022-09-11T05:36:52.293Z,101488.00
2022-09-11T05:39:19.774Z,101494.00
2022-09-11T05:41:50.276Z,101491.00
2022-09-11T05:44:17.559Z,101504.00
2022-09-11T05:46:46.425Z,101508.00
2022-09-11T05:49:28.363Z,101491.00
2022-09-11T05:52:09.050Z,101498.00
2022-09-11T05:54:36.364Z,101503.00
2022-09-11T05:57:07.644Z,101515.00
2022-09-11T05:59:45.643Z,101532.00
2022-09-11T06:02:21.937Z,101526.00
2022-09-11T06:04:54.000Z,101538.00
2022-09-11T06:07:21.959Z,101528.00
2022-09-11T06:09:54.745Z,101542.00
2022-09-11T06:12:22.068Z,101546.00
2022-09-11T06:14:49.551Z,101546.00
2022-09-11T06:17:25.607Z,101547.00
2022-09-11T06:19:53.395Z,101554.00
2022-09-11T06:22:25.816Z,101551.00
2022-09-11T06:25:02.606Z,101550.00
2022-09-11T06:27:35.356Z,101556.00
2022-09-11T06:30:02.621Z,101573.00
2022-09-11T06:32:29.823Z,101569.00
2022-09-11T06:34:59.176Z,101556.00
2022-09-11T06:37:37.231Z,101556.00
2022-09-11T06:40:05.069Z,101567.00
2022-09-11T06:42:36.759Z,101555.00
2022-09-11T06:45:13.392Z,101575.00
2022-09-11T06:51:09.171Z,101585.00
2022-09-11T06:58:37.383Z,101584.00
2022-09-11T07:01:46.508Z,101578.00
2022-09-11T07:11:24.777Z,101581.00
2022-09-11T07:23:05.410Z,101586.00
2022-09-11T07:25:42.781Z,101565.00
2022-09-11T07:28:25.559Z,101558.00
2022-09-11T07:31:03.221Z,101566.00
2022-09-11T07:33:30.650Z,101580.00
2022-09-11T07:40:21.790Z,101582.00
2022-09-11T07:42:56.969Z,101587.00
2022-09-11T07:45:29.844Z,101590.00
2022-09-11T07:47:59.629Z,101588.00
2022-09-11T07:54:53.692Z,101590.00
2022-09-11T07:57:28.384Z,101592.00
2022-09-11T07:59:58.491Z,101593.00
2022-09-11T08:02:34.293Z,101591.00
2022-09-11T08:05:08.205Z,101589.00
2022-09-11T08:14:37.326Z,101605.00
2022-09-11T08:17:12.207Z,101603.00
2022-09-11T08:30:00.227Z,101628.00
2022-09-11T08:32:39.092Z,101623.00
2022-09-11T08:44:02.154Z,101647.00
2022-09-11T08:46:42.733Z,101648.00
2022-09-11T08:53:23.570Z,101654.00
2022-09-11T08:56:03.797Z,101650.00
2022-09-11T08:59:08.769Z,101655.00
2022-09-11T09:06:10.749Z,101650.00
2022-09-11T09:08:50.290Z,101643.00
2022-09-11T09:11:47.277Z,101649.00
2022-09-11T09:15:05.859Z,101638.00
2022-09-11T09:17:48.359Z,101635.00
2022-09-11T09:20:49.898Z,101635.00
2022-09-11T09:23:37.414Z,101631.00
2022-09-11T09:30:27.620Z,101647.00
2022-09-11T09:34:38.933Z,101651.00
2022-09-11T09:37:18.646Z,101658.00
2022-09-11T09:39:48.386Z,101648.00
2022-09-11T09:42:53.639Z,101658.00
2022-09-11T09:46:06.690Z,101657.00
2022-09-11T09:48:56.342Z,101654.00
2022-09-11T09:54:39.130Z,101654.00
2022-09-11T09:57:13.546Z,101650.00
2022-09-11T10:00:12.127Z,101652.00
2022-09-11T10:02:58.378Z,101660.00
2022-09-11T10:05:45.535Z,101655.00
2022-09-11T10:08:46.324Z,101655.00
2022-09-11T10:11:14.921Z,101647.00
2022-09-11T10:13:54.462Z,101650.00
2022-09-11T10:16:28.137Z,101662.00
2022-09-11T10:18:57.975Z,101659.00
2022-09-11T10:21:58.369Z,101667.00
2022-09-11T10:25:02.651Z,101677.00
2022-09-11T10:27:36.025Z,101672.00
2022-09-11T10:33:31.124Z,101675.00
2022-09-11T10:36:37.000Z,101665.00
2022-09-11T10:39:28.805Z,101662.00
2022-09-11T10:42:40.406Z,101663.00
2022-09-11T10:46:41.497Z,101656.00
2022-09-11T10:49:11.646Z,101645.00
2022-09-11T10:51:57.626Z,101644.00
2022-09-11T10:58:34.738Z,101653.00
2022-09-11T11:01:05.922Z,101656.00
2022-09-11T11:03:41.999Z,101658.00
2022-09-11T11:06:51.171Z,101665.00
2022-09-11T11:10:33.340Z,101678.00
2022-09-11T11:13:58.965Z,101676.00
2022-09-11T11:17:02.958Z,101673.00
2022-09-11T11:24:15.673Z,101682.00
2022-09-11T11:27:22.754Z,101682.00
2022-09-11T11:30:41.265Z,101677.00
2022-09-11T11:33:17.513Z,101674.00
2022-09-11T11:36:24.631Z,101680.00
2022-09-11T11:39:03.268Z,101683.00
2022-09-11T11:41:44.789Z,101679.00
2022-09-11T11:44:31.789Z,101675.00
2022-09-11T11:47:06.049Z,101676.00
2022-09-11T11:49:44.142Z,101683.00
2022-09-11T11:52:55.311Z,101686.00
2022-09-11T11:55:28.969Z,101678.00
2022-09-11T11:58:08.168Z,101678.00
2022-09-11T12:00:46.704Z,101672.00
2022-09-11T12:03:31.355Z,101669.00
2022-09-11T12:05:58.644Z,101674.00
2022-09-11T12:08:27.551Z,101674.00
2022-09-11T12:11:02.738Z,101670.00
2022-09-11T12:13:42.173Z,101664.00
2022-09-11T12:16:15.307Z,101673.00
2022-09-11T12:19:07.781Z,101657.00
2022-09-11T12:21:40.958Z,101663.00
2022-09-11T12:24:08.331Z,101673.00
2022-09-11T12:26:35.712Z,101669.00
2022-09-11T12:29:13.163Z,101660.00
2022-09-11T12:31:52.617Z,101658.00
2022-09-11T12:34:26.614Z,101649.00
2022-09-11T12:37:07.188Z,101651.00
2022-09-11T12:39:55.992Z,101642.00
2022-09-11T12:42:23.426Z,101640.00
2022-09-11T12:44:53.077Z,101641.00
2022-09-11T12:47:40.938Z,101648.00
2022-09-11T12:50:21.453Z,101648.00
2022-09-11T12:52:55.113Z,101656.00
2022-09-11T12:55:52.209Z,101654.00
2022-09-11T12:58:19.324Z,101648.00
2022-09-11T13:00:51.028Z,101648.00
2022-09-11T13:03:28.897Z,101646.00
2022-09-11T13:06:09.754Z,101652.00
2022-09-11T13:08:59.994Z,101656.00
2022-09-11T13:11:50.055Z,101650.00
2022-09-11T13:14:29.471Z,101652.00
2022-09-11T13:17:14.404Z,101661.00
2022-09-11T13:19:41.706Z,101654.00
2022-09-11T13:22:31.374Z,101661.00
2022-09-11T13:25:20.787Z,101647.00
2022-09-11T13:27:54.087Z,101641.00
2022-09-11T13:30:24.366Z,101641.00
2022-09-11T13:33:08.792Z,101638.00
2022-09-11T13:35:40.947Z,101630.00
2022-09-11T13:38:33.144Z,101620.00
2022-09-11T13:41:19.821Z,101618.00
2022-09-11T13:43:58.711Z,101608.00
2022-09-11T13:46:36.094Z,101608.00
2022-09-11T13:49:06.693Z,101599.00
2022-09-11T13:51:35.050Z,101600.00
2022-09-11T13:54:13.004Z,101595.00
2022-09-11T13:56:54.955Z,101586.00
2022-09-11T13:59:45.002Z,101580.00
2022-09-11T14:02:36.953Z,101581.00
2022-09-11T14:05:23.645Z,101576.00
2022-09-11T14:08:24.595Z,101574.00
2022-09-11T14:10:57.859Z,101575.00
2022-09-11T14:13:33.671Z,101578.00
2022-09-11T14:16:13.743Z,101574.00
2022-09-11T14:19:06.834Z,101574.00
2022-09-11T14:21:41.102Z,101573.00
2022-09-11T14:24:34.661Z,101569.00
2022-09-11T14:27:30.568Z,101566.00
2022-09-11T14:29:58.008Z,101567.00
2022-09-11T14:32:35.940Z,101578.00
2022-09-11T14:35:07.435Z,101567.00
2022-09-11T14:37:43.834Z,101563.00
2022-09-11T14:40:20.393Z,101569.00
2022-09-11T14:42:51.481Z,101555.00
2022-09-11T14:45:26.105Z,101561.00
2022-09-11T14:47:56.913Z,101557.00
2022-09-11T14:50:25.070Z,101565.00
2022-09-11T14:52:52.608Z,101564.00
2022-09-11T14:55:21.011Z,101558.00
2022-09-11T14:57:51.346Z,101553.00
2022-09-11T15:00:19.582Z,101549.00
2022-09-11T15:02:48.069Z,101550.00
2022-09-11T15:05:21.051Z,101542.00
2022-09-11T15:07:49.458Z,101545.00
2022-09-11T15:10:16.898Z,101543.00
2022-09-11T15:12:44.814Z,101538.00
2022-09-11T15:15:12.063Z,101535.00
2022-09-11T15:17:46.449Z,101529.00
2022-09-11T15:20:13.854Z,101543.00
2022-09-11T15:22:41.375Z,101531.00
2022-09-11T15:25:09.045Z,101526.00
2022-09-11T15:27:36.658Z,101524.00
2022-09-11T15:30:05.185Z,101519.00
2022-09-11T15:32:32.806Z,101518.00
2022-09-11T15:35:00.139Z,101520.00
2022-09-11T15:37:27.418Z,101510.00
2022-09-11T15:39:54.731Z,101520.00
2022-09-11T15:42:22.098Z,101512.00
2022-09-11T15:44:51.091Z,101509.00
2022-09-11T15:47:18.513Z,101513.00
2022-09-11T15:50:05.819Z,101512.00
2022-09-11T15:52:35.610Z,101510.00
2022-09-11T15:55:05.912Z,101512.00
2022-09-11T15:57:34.809Z,101515.00
2022-09-11T16:00:05.609Z,101509.00
2022-09-11T16:02:32.802Z,101514.00
2022-09-11T16:05:01.395Z,101504.00
2022-09-11T16:07:30.894Z,101516.00
2022-09-11T16:09:58.897Z,101514.00
2022-09-11T16:12:26.468Z,101511.00
2022-09-11T16:14:53.596Z,101522.00
2022-09-11T16:17:39.531Z,101515.00
2022-09-11T16:20:07.388Z,101522.00
2022-09-11T16:22:35.715Z,101516.00
2022-09-11T16:25:03.537Z,101528.00
2022-09-11T16:27:30.703Z,101518.00
2022-09-11T16:32:45.455Z,101508.00
2022-09-11T16:35:14.122Z,101515.00
2022-09-11T16:37:41.481Z,101508.00
2022-09-11T16:40:09.916Z,101513.00
2022-09-11T16:42:37.615Z,101507.00
2022-09-11T16:45:52.661Z,101510.00
2022-09-11T16:48:19.904Z,101504.00
2022-09-11T16:50:58.022Z,101508.00
2022-09-11T16:53:29.452Z,101500.00
2022-09-11T16:55:56.736Z,101498.00
2022-09-11T16:58:24.678Z,101490.00
2022-09-11T17:00:52.312Z,101493.00
2022-09-11T17:03:22.293Z,101491.00
2022-09-11T17:05:55.797Z,101485.00
2022-09-11T17:08:30.551Z,101484.00
2022-09-11T17:11:10.111Z,101489.00
2022-09-11T17:13:37.991Z,101492.00
2022-09-11T17:16:16.527Z,101494.00
2022-09-11T17:18:54.006Z,101495.00
2022-09-11T17:21:24.561Z,101496.00
2022-09-11T17:23:56.796Z,101490.00
2022-09-11T17:26:24.876Z,101494.00
2022-09-11T17:28:55.717Z,101501.00
2022-09-11T17:31:23.090Z,101506.00
2022-09-11T17:33:50.771Z,101497.00
2022-09-11T17:36:21.475Z,101499.00
2022-09-11T17:38:52.764Z,101499.00
2022-09-11T17:41:21.160Z,101513.00
2022-09-11T17:43:48.854Z,101505.00
2022-09-11T17:46:20.511Z,101497.00
2022-09-11T17:48:48.412Z,101507.00
2022-09-11T17:51:22.418Z,101508.00
2022-09-11T17:53:57.388Z,101511.00
2022-09-11T17:56:33.636Z,101507.00
2022-09-11T17:59:01.389Z,101511.00
2022-09-11T18:01:31.580Z,101513.00
2022-09-11T18:04:00.190Z,101519.00
2022-09-11T18:06:30.091Z,101515.00
2022-09-11T18:09:04.659Z,101514.00
2022-09-11T18:11:32.293Z,101510.00
2022-09-11T18:14:00.453Z,101508.00
2022-09-11T18:16:28.129Z,101512.00
2022-09-11T18:18:55.895Z,101512.00
2022-09-11T18:21:23.638Z,101505.00
2022-09-11T18:23:51.219Z,101518.00
2022-09-11T18:26:29.810Z,101515.00
2022-09-11T18:29:11.287Z,101516.00
2022-09-11T18:31:46.160Z,101510.00
2022-09-11T18:34:25.455Z,101505.00
2022-09-11T18:36:53.540Z,101517.00
2022-09-11T18:39:21.773Z,101514.00
2022-09-11T18:41:52.895Z,101517.00
2022-09-11T18:44:24.834Z,101504.00
2022-09-11T18:46:55.766Z,101512.00
2022-09-11T18:49:24.877Z,101512.00
2022-09-11T18:51:53.821Z,101505.00
2022-09-11T18:54:21.941Z,101503.00
2022-09-11T18:56:51.327Z,101514.00
2022-09-11T18:59:20.348Z,101516.00
2022-09-11T19:01:47.701Z,101513.00
2022-09-11T19:04:16.511Z,101512.00
2022-09-11T19:06:45.401Z,101514.00
2022-09-11T19:09:15.147Z,101511.00
2022-09-11T19:11:42.674Z,101509.00
2022-09-11T19:14:12.649Z,101501.00
2022-09-11T19:16:41.404Z,101503.00
2022-09-11T19:19:09.624Z,101500.00
2022-09-11T19:21:41.026Z,101500.00
2022-09-11T19:24:08.431Z,101504.00
2022-09-11T19:26:39.324Z,101503.00
2022-09-11T19:29:08.980Z,101500.00
2022-09-11T19:31:39.449Z,101501.00
2022-09-11T19:34:08.405Z,101497.00
2022-09-11T19:36:36.270Z,101514.00
2022-09-11T19:39:05.660Z,101516.00
2022-09-11T19:41:38.733Z,101515.00
2022-09-11T19:44:15.639Z,101519.00
2022-09-11T19:46:43.248Z,101511.00
2022-09-11T19:49:16.415Z,101517.00
2022-09-11T19:51:45.069Z,101521.00
2022-09-11T19:54:14.635Z,101515.00
2022-09-11T19:56:45.403Z,101514.00
2022-09-11T19:59:14.557Z,101524.00
2022-09-11T20:01:43.096Z,101517.00
2022-09-11T20:04:11.566Z,101517.00
2022-09-11T20:06:39.954Z,101521.00
2022-09-11T20:11:55.027Z,101520.00
2022-09-11T20:14:22.283Z,101512.00
2022-09-11T20:16:49.680Z,101510.00
2022-09-11T20:19:20.740Z,101500.00
2022-09-11T20:21:47.868Z,101496.00
2022-09-11T20:24:15.454Z,101503.00
2022-09-11T20:26:42.982Z,101511.00
2022-09-11T20:29:16.535Z,101498.00
2022-09-11T20:31:48.762Z,101498.00
2022-09-11T20:34:20.336Z,101494.00
2022-09-11T20:36:48.123Z,101499.00
2022-09-11T20:39:16.435Z,101500.00
2022-09-11T20:41:44.087Z,101502.00
2022-09-11T20:44:12.155Z,101494.00
2022-09-11T20:46:39.686Z,101506.00
2022-09-11T20:49:06.918Z,101491.00
2022-09-11T20:51:34.866Z,101484.00
2022-09-11T20:54:02.664Z,101489.00
2022-09-11T20:56:30.156Z,101488.00
2022-09-11T20:58:57.981Z,101477.00
2022-09-11T21:01:27.719Z,101485.00
2022-09-11T21:03:57.212Z,101493.00
2022-09-11T21:06:28.430Z,101485.00
2022-09-11T21:09:03.557Z,101482.00
2022-09-11T21:11:31.309Z,101486.00
2022-09-11T21:13:59.217Z,101477.00
2022-09-11T21:16:26.747Z,101485.00
2022-09-11T21:18:57.654Z,101483.00
2022-09-11T21:22:02.526Z,101486.00
2022-09-11T21:24:29.759Z,101487.00
2022-09-11T21:26:56.846Z,101474.00
2022-09-11T21:29:24.190Z,101481.00
2022-09-11T21:31:52.673Z,101475.00
2022-09-11T21:34:19.851Z,101471.00
2022-09-11T21:36:47.060Z,101476.00
2022-09-11T21:40:17.161Z,101478.00
2022-09-11T21:42:44.624Z,101477.00
2022-09-11T21:45:11.832Z,101472.00
2022-09-11T21:47:39.039Z,101473.00
2022-09-11T21:50:07.334Z,101471.00
2022-09-11T21:52:34.733Z,101475.00
2022-09-11T21:55:01.852Z,101468.00
2022-09-11T21:57:29.942Z,101481.00
2022-09-11T21:59:58.293Z,101489.00
2022-09-11T22:02:26.856Z,101475.00
2022-09-11T22:04:54.436Z,101478.00
2022-09-11T22:07:22.982Z,101482.00
2022-09-11T22:09:50.258Z,101481.00
2022-09-11T22:12:17.557Z,101486.00
2022-09-11T22:14:48.871Z,101483.00
2022-09-11T22:17:16.649Z,101488.00
2022-09-11T22:19:45.975Z,101487.00
2022-09-11T22:22:14.227Z,101477.00
2022-09-11T22:24:42.050Z,101485.00
2022-09-11T22:27:10.712Z,101483.00
2022-09-11T22:29:37.995Z,101475.00
2022-09-11T22:32:06.619Z,101482.00
2022-09-11T22:34:36.179Z,101479.00
2022-09-11T22:37:04.020Z,101474.00
2022-09-11T22:39:34.206Z,101466.00
2022-09-11T22:42:01.307Z,101466.00
2022-09-11T22:44:28.449Z,101468.00
2022-09-11T22:46:55.806Z,101477.00
2022-09-11T22:49:23.019Z,101470.00
2022-09-11T22:51:50.274Z,101467.00
2022-09-11T22:54:17.874Z,101475.00
2022-09-11T22:56:45.384Z,101470.00
2022-09-11T22:59:12.587Z,101469.00
2022-09-11T23:01:39.874Z,101464.00
2022-09-11T23:04:07.231Z,101470.00
2022-09-11T23:06:53.328Z,101461.00
2022-09-11T23:09:21.423Z,101449.00
2022-09-11T23:11:49.115Z,101453.00
2022-09-11T23:14:16.486Z,101449.00
2022-09-11T23:16:44.907Z,101448.00
2022-09-11T23:19:14.937Z,101462.00
2022-09-11T23:21:42.634Z,101458.00
2022-09-11T23:24:13.747Z,101457.00
2022-09-11T23:26:41.087Z,101448.00
2022-09-11T23:29:08.229Z,101457.00
2022-09-11T23:31:35.671Z,101464.00
2022-09-11T23:34:07.960Z,101446.00
2022-09-11T23:36:36.576Z,101453.00
2022-09-11T23:39:04.507Z,101448.00
2022-09-11T23:41:32.283Z,101448.00
2022-09-11T23:44:00.015Z,101433.00
2022-09-11T23:46:27.323Z,101435.00
2022-09-11T23:48:54.759Z,101438.00
2022-09-11T23:51:22.544Z,101444.00
2022-09-11T23:53:51.797Z,101451.00
2022-09-11T23:56:21.000Z,101435.00
